Date,TemperatureHighF,TemperatureAvgF,TemperatureLowF,DewpointHighF,DewpointAvgF,DewpointLowF,HumidityHigh,HumidityAvg,HumidityLow,PressureMaxIn,PressureMinIn,WindSpeedMaxMPH,WindSpeedAvgMPH,GustSpeedMaxMPH,PrecipitationSumIn
2013-4-1,36.0,34.8,33.8,0.8,-0.1,-1.0,22,22,22,18.39,18.39,20,7,20,0.00
2013-4-8,45.1,40.9,39.9,36.0,32.8,31.3,74,73,71,18.39,18.39,10,1,10,0.24
2013-4-9,40.5,38.3,36.3,34.0,31.6,28.4,78,76,69,18.39,18.39,20,3,20,1.22
2013-4-10,38.5,36.3,33.6,34.1,31.1,27.2,85,81,76,18.39,18.39,28,4,28,1.18
2013-4-11,37.9,36.4,34.7,32.3,30.9,29.0,81,80,80,29.58,18.39,30,8,30,0.87
2013-4-12,43.3,37.8,36.5,37.7,32.3,30.3,82,80,78,29.73,29.44,14,1,14,0.16
2013-4-13,43.0,37.5,33.1,31.6,26.7,17.7,78,65,51,29.91,29.70,22,2,23,0.16
2013-4-14,49.1,39.3,32.5,29.6,20.6,16.9,59,47,33,29.91,29.55,24,3,24,0.08
2013-4-15,63.9,53.7,45.5,40.5,29.8,17.5,65,41,22,29.88,29.52,41,3,41,0.55
2013-4-16,52.2,44.6,36.7,24.5,18.1,14.3,49,35,26,30.17,29.85,24,2,24,0.00
2013-4-17,43.9,41.1,38.5,36.0,25.4,12.2,77,57,30,30.20,29.76,30,6,30,0.91
2013-4-18,53.6,46.9,41.7,44.8,39.8,33.7,78,76,71,29.76,29.29,30,2,30,1.54
2013-4-19,43.3,38.0,32.0,33.5,16.5,10.3,73,42,29,29.79,29.29,31,10,31,1.46
2013-4-20,32.4,28.6,26.2,11.0,5.8,3.6,42,37,33,30.00,29.79,18,3,18,0.00
2013-4-23,45.9,42.0,40.1,32.3,31.1,27.5,71,65,49,29.88,29.85,15,2,15,0.39
2013-4-24,36.7,36.7,36.7,27.8,27.8,27.8,70,70,70,29.88,29.88,0,0,0,0.00
2013-4-28,68.0,60.6,53.1,30.4,28.3,25.9,39,30,22,29.76,29.73,11,2,11,0.00
2013-4-29,72.3,60.0,46.4,36.8,30.3,23.4,46,33,22,29.79,29.67,19,2,19,0.00
2013-4-30,82.0,70.5,60.4,40.0,34.8,29.3,44,29,17,29.82,29.64,27,6,27,0.00
2013-5-1,70.3,66.6,63.0,37.1,34.9,30.4,35,31,23,29.97,29.82,13,1,13,0.00
2013-5-2,52.9,47.0,40.1,41.7,37.2,31.8,72,69,65,30.11,30.06,11,1,11,0.87
2013-5-3,48.2,43.3,38.1,42.2,37.7,31.3,83,81,72,30.06,29.91,14,2,14,0.87
2013-5-4,68.4,56.1,45.0,55.2,36.2,23.9,80,54,22,29.94,29.88,18,3,18,0.20
2013-5-5,53.4,49.6,46.9,28.1,26.9,25.6,44,41,37,29.97,29.91,0,0,0,0.00
2013-5-9,49.3,48.4,47.5,39.5,38.6,37.8,69,69,68,29.82,29.82,17,4,17,0.04
2013-7-6,82.2,82.2,82.2,37.2,37.2,37.0,20,20,20,29.85,29.85,0,0,0,0.04
2013-7-7,89.8,89.4,88.9,46.3,44.7,43.3,23,21,20,29.85,29.82,0,0,0,0.00
2013-7-13,79.2,75.5,71.4,38.7,36.1,34.4,30,24,21,30.03,30.00,7,0,7,0.00
2013-7-14,84.2,72.6,63.1,48.1,45.1,39.2,45,38,26,30.11,30.06,7,0,7,0.00
2013-8-4,74.5,74.5,74.5,35.4,35.4,35.4,24,24,24,30.03,30.03,4,0,4,0.00
2013-8-16,74.8,68.2,61.2,36.3,34.2,31.5,36,29,22,30.06,30.03,6,0,6,0.00
2013-8-17,77.7,66.8,54.0,43.2,35.4,30.2,46,32,22,30.11,30.06,9,0,9,0.00
2013-8-18,78.3,66.1,53.6,42.1,35.4,30.4,46,33,23,30.09,29.97,13,0,13,0.00
2013-8-24,79.2,75.2,64.9,44.6,41.7,39.7,45,30,25,30.14,30.06,10,0,10,0.00
2013-8-25,82.9,77.0,65.7,47.7,44.7,39.2,38,32,29,30.09,30.03,14,2,14,0.00
2013-8-30,73.4,71.4,68.0,67.8,65.6,61.4,83,82,80,29.76,29.67,4,0,4,0.00
2013-8-31,77.7,69.9,63.9,61.4,50.3,41.2,80,52,30,29.76,29.70,6,0,6,0.00
2013-9-1,82.2,70.1,61.9,64.2,48.6,40.4,77,49,27,29.70,29.61,12,0,12,0.16
2013-9-2,72.9,65.7,60.3,57.3,49.9,34.0,71,59,25,29.85,29.70,10,0,10,0.00
2013-9-7,80.1,72.2,65.7,67.2,56.7,39.3,80,62,25,29.88,29.76,10,0,10,0.39
2013-9-8,72.3,68.4,65.5,58.7,47.6,40.2,69,48,32,29.94,29.85,6,0,6,0.00
2013-9-15,56.5,56.4,56.3,33.7,33.3,32.9,42,42,41,29.88,29.88,0,0,0,0.00
2013-10-12,64.8,60.0,55.6,43.5,31.0,23.9,48,34,26,29.97,29.82,9,0,9,0.04
2013-10-13,55.0,49.7,45.3,25.6,24.4,21.5,43,37,27,30.23,30.20,10,0,10,0.00
2013-11-28,30.2,24.2,15.6,10.8,4.5,-2.1,52,43,31,30.41,30.09,14,2,14,0.00
2013-11-29,28.9,21.2,10.4,7.6,0.6,-6.7,45,40,33,30.76,30.41,12,1,12,0.00
2013-11-30,39.7,32.5,25.9,16.8,11.1,5.6,43,41,37,30.62,30.32,16,1,16,0.00
2013-12-1,38.8,34.7,31.1,13.3,10.9,8.1,43,37,29,30.44,30.35,10,0,10,0.00
2013-12-6,14.4,11.6,9.1,-12.1,-14.5,-16.7,29,29,29,30.85,30.26,14,2,14,0.00
2013-12-7,14.2,8.9,4.1,-12.6,-17.5,-21.1,29,28,26,30.53,30.38,14,2,14,0.00
2013-12-8,26.2,18.6,7.7,11.9,-2.3,-19.3,54,40,27,30.47,29.82,14,1,14,0.00
2013-12-9,26.4,16.9,3.6,12.3,3.0,-10.5,56,54,51,30.06,29.79,24,6,24,0.00
2013-12-10,18.1,9.8,0.7,3.5,-5.5,-13.2,52,49,46,30.14,29.82,24,5,24,0.00
2013-12-11,15.8,10.0,1.2,-0.9,-6.5,-14.7,47,46,46,30.38,30.11,16,2,16,0.00
2013-12-12,16.7,9.3,0.3,0.4,-7.1,-15.6,48,46,46,30.35,30.06,18,3,18,0.00
2013-12-13,25.9,21.1,14.2,12.6,6.1,-3.2,57,52,45,30.09,30.03,12,1,12,0.00
2013-12-14,30.0,26.8,24.3,17.7,13.2,9.2,60,56,52,30.06,29.82,16,3,16,0.00
2013-12-15,24.4,18.7,13.5,9.8,2.3,-3.5,53,48,45,29.91,29.79,18,6,18,0.00
2013-12-19,32.2,31.9,31.5,23.5,22.5,20.9,70,68,64,29.85,29.76,16,4,16,0.00
2013-12-20,32.0,29.3,27.1,23.3,18.8,14.9,70,64,58,29.76,29.67,8,0,8,0.00
2013-12-21,32.2,28.5,26.6,23.2,16.3,13.4,69,60,57,29.79,29.58,13,0,13,0.00
2013-12-22,32.2,30.5,26.6,23.2,20.1,13.7,69,65,58,30.00,29.55,6,0,6,0.00
2013-12-23,45.9,20.0,-0.6,30.2,5.2,-16.5,58,52,44,30.26,30.00,12,2,12,0.00
2013-12-24,23.3,2.7,-6.1,-5.3,-13.3,-26.6,46,46,46,30.38,30.20,11,1,11,0.00
2013-12-25,25.7,20.1,8.1,11.8,5.4,-8.4,55,52,46,30.20,29.94,13,3,13,0.00
2013-12-26,26.4,22.1,14.9,13.7,7.3,-3.1,58,52,44,30.11,29.94,16,2,16,0.00
2013-12-27,28.5,23.2,15.6,19.2,10.1,-1.8,68,57,45,30.14,29.91,15,2,15,0.00
2013-12-28,31.4,28.4,23.5,22.1,17.8,10.1,69,64,56,29.94,29.67,14,2,14,0.12
2013-12-29,30.7,19.9,1.0,21.1,5.1,-16.7,68,52,42,30.09,29.64,14,2,14,0.00
2013-12-30,1.0,-3.6,-11.5,-16.7,-21.0,-28.1,42,42,42,30.20,30.06,11,1,11,0.00
2013-12-31,4.9,-0.1,-5.5,-13.1,-17.8,-22.7,42,42,42,30.23,30.06,12,2,12,0.00
2014-1-1,9.4,3.1,-2.8,-6.3,-13.6,-20.4,48,45,42,30.23,30.11,7,0,7,0.00
2014-1-2,7.4,3.2,-5.5,-8.6,-12.7,-21.0,47,47,46,30.29,30.09,14,1,14,0.00